createdAt,value
2023-04-11T00:00:50.188Z,74.49
2023-04-11T00:03:17.045Z,73.84
2023-04-11T00:05:43.787Z,74.08
2023-04-11T00:08:10.538Z,73.82
2023-04-11T00:10:37.144Z,73.71
2023-04-11T00:13:03.762Z,74.41
2023-04-11T00:15:32.789Z,74.58
2023-04-11T00:17:59.435Z,74.72
2023-04-11T00:20:26.033Z,74.75
2023-04-11T00:22:55.469Z,75.03
2023-04-11T00:25:22.099Z,75.59
2023-04-11T00:27:48.771Z,75.71
2023-04-11T00:30:15.505Z,76.02
2023-04-11T00:32:42.176Z,75.05
2023-04-11T00:35:09.315Z,75.38
2023-04-11T00:37:36.490Z,75.02
2023-04-11T00:40:05.812Z,74.30
2023-04-11T00:42:33.253Z,74.68
2023-04-11T00:44:59.918Z,74.62
2023-04-11T00:47:26.810Z,75.22
2023-04-11T00:49:53.492Z,75.54
2023-04-11T00:52:20.329Z,74.73
2023-04-11T00:54:46.971Z,74.96
2023-04-11T00:57:14.385Z,74.92
2023-04-11T00:59:42.333Z,74.53
2023-04-11T01:02:09.560Z,74.91
2023-04-11T01:04:36.245Z,74.69
2023-04-11T01:07:06.254Z,74.73
2023-04-11T01:09:35.459Z,75.04
2023-04-11T01:12:04.095Z,75.37
2023-04-11T01:14:30.985Z,75.84
2023-04-11T01:16:58.427Z,76.15
2023-04-11T01:19:29.199Z,75.77
2023-04-11T01:21:58.085Z,76.05
2023-04-11T01:24:25.113Z,75.76
2023-04-11T01:26:52.203Z,75.88
2023-04-11T01:29:18.979Z,76.06
2023-04-11T01:31:48.096Z,76.24
2023-04-11T01:34:17.163Z,75.93
2023-04-11T01:36:44.330Z,76.32
2023-04-11T01:39:11.312Z,75.76
2023-04-11T01:41:38.723Z,76.22
2023-04-11T01:44:05.864Z,76.13
2023-04-11T01:46:32.722Z,76.60
2023-04-11T01:49:01.552Z,76.16
2023-04-11T01:51:28.551Z,76.05
2023-04-11T01:53:55.511Z,76.99
2023-04-11T01:56:22.382Z,76.93
2023-04-11T01:58:49.250Z,77.21
2023-04-11T02:01:20.064Z,76.91
2023-04-11T02:03:46.825Z,77.02
2023-04-11T02:06:15.766Z,77.16
2023-04-11T02:08:43.181Z,76.69
2023-04-11T02:11:10.348Z,76.87
2023-04-11T02:13:37.096Z,77.24
2023-04-11T02:16:09.668Z,76.90
2023-04-11T02:18:36.508Z,77.02
2023-04-11T02:21:03.452Z,77.14
2023-04-11T02:23:30.172Z,77.36
2023-04-11T02:25:56.836Z,77.12
2023-04-11T02:28:23.481Z,77.18
2023-04-11T02:30:50.194Z,77.17
2023-04-11T02:33:16.834Z,76.65
2023-04-11T02:35:43.522Z,76.96
2023-04-11T02:38:10.333Z,77.03
2023-04-11T02:40:37.085Z,76.53
2023-04-11T02:43:03.894Z,77.35
2023-04-11T02:45:31.041Z,77.02
2023-04-11T02:47:58.514Z,76.54
2023-04-11T02:50:27.256Z,77.09
2023-04-11T02:52:54.724Z,76.86
2023-04-11T02:55:24.467Z,77.12
2023-04-11T02:57:51.902Z,76.81
2023-04-11T03:00:22.174Z,77.07
2023-04-11T03:02:49.654Z,76.80
2023-04-11T03:05:16.380Z,77.19
2023-04-11T03:07:44.053Z,77.29
2023-04-11T03:10:10.936Z,76.82
2023-04-11T03:12:37.686Z,77.16
2023-04-11T03:15:04.633Z,77.17
2023-04-11T03:17:31.347Z,76.98
2023-04-11T03:19:58.158Z,77.01
2023-04-11T03:22:25.241Z,77.25
2023-04-11T03:24:51.952Z,77.37
2023-04-11T03:27:18.643Z,77.77
2023-04-11T03:29:45.287Z,77.50
2023-04-11T03:32:11.926Z,77.65
2023-04-11T03:34:38.549Z,77.62
2023-04-11T03:37:05.212Z,77.97
2023-04-11T03:39:31.886Z,77.98
2023-04-11T03:41:58.600Z,77.71
2023-04-11T03:44:25.264Z,78.08
2023-04-11T03:46:51.938Z,77.67
2023-04-11T03:49:18.718Z,77.85
2023-04-11T03:51:46.254Z,77.92
2023-04-11T03:54:12.969Z,78.00
2023-04-11T03:56:39.581Z,78.06
2023-04-11T03:59:06.223Z,77.75
2023-04-11T04:01:32.881Z,77.83
2023-04-11T04:04:00.905Z,78.03
2023-04-11T04:06:28.660Z,77.79
2023-04-11T04:08:55.449Z,77.98
2023-04-11T04:11:22.056Z,77.95
2023-04-11T04:13:48.726Z,77.85
2023-04-11T04:16:17.093Z,78.15
2023-04-11T04:18:43.747Z,77.89
2023-04-11T04:21:10.408Z,77.41
2023-04-11T04:23:39.420Z,78.23
2023-04-11T04:26:06.711Z,78.08
2023-04-11T04:28:33.453Z,78.31
2023-04-11T04:31:02.199Z,78.13
2023-04-11T04:33:28.891Z,78.44
2023-04-11T04:35:59.913Z,78.32
2023-04-11T04:38:29.049Z,78.16
2023-04-11T04:40:55.737Z,78.43
2023-04-11T04:43:24.193Z,78.66
2023-04-11T04:45:51.246Z,78.94
2023-04-11T04:48:17.996Z,78.62
2023-04-11T04:50:45.794Z,78.64
2023-04-11T04:53:13.634Z,78.29
2023-04-11T04:55:40.727Z,78.48
2023-04-11T04:58:07.320Z,78.38
2023-04-11T05:00:33.927Z,78.38
2023-04-11T05:03:03.404Z,78.10
2023-04-11T05:05:30.112Z,78.23
2023-04-11T05:07:56.736Z,77.99
2023-04-11T05:10:23.538Z,77.42
2023-04-11T05:12:50.355Z,76.25
2023-04-11T05:15:16.948Z,75.93
2023-04-11T05:17:43.604Z,75.91
2023-04-11T05:20:10.740Z,76.50
2023-04-11T05:22:38.112Z,76.46
2023-04-11T05:25:05.719Z,76.49
2023-04-11T05:27:32.501Z,76.02
2023-04-11T05:30:00.690Z,75.43
2023-04-11T05:32:27.329Z,75.89
2023-04-11T05:34:58.195Z,75.77
2023-04-11T05:37:26.224Z,76.00
2023-04-11T05:39:56.422Z,75.63
2023-04-11T05:42:25.459Z,75.38
2023-04-11T05:44:52.031Z,75.90
2023-04-11T05:47:18.770Z,75.57
2023-04-11T05:49:45.565Z,75.28
2023-04-11T05:52:15.060Z,75.94
2023-04-11T05:54:41.668Z,76.22
2023-04-11T05:57:08.244Z,75.41
2023-04-11T05:59:36.157Z,75.08
2023-04-11T06:02:03.018Z,75.07
2023-04-11T06:04:29.829Z,74.46
2023-04-11T06:06:56.702Z,74.62
2023-04-11T06:09:23.418Z,75.09
2023-04-11T06:11:50.032Z,74.50
2023-04-11T06:14:16.838Z,74.64
2023-04-11T06:16:43.492Z,74.28
2023-04-11T06:19:12.754Z,73.95
2023-04-11T06:21:41.470Z,72.83
2023-04-11T06:24:11.321Z,72.97
2023-04-11T06:26:37.974Z,70.90
2023-04-11T06:29:05.776Z,71.02
2023-04-11T06:31:36.343Z,70.49
2023-04-11T06:34:03.271Z,70.43
2023-04-11T06:36:30.289Z,71.33
2023-04-11T06:38:56.988Z,71.23
2023-04-11T06:41:23.839Z,70.99
2023-04-11T06:43:50.598Z,70.73
2023-04-11T06:46:17.274Z,70.32
2023-04-11T06:48:46.300Z,70.68
2023-04-11T06:51:12.904Z,70.69
2023-04-11T06:53:39.561Z,71.27
2023-04-11T06:56:06.746Z,70.66
2023-04-11T06:58:33.311Z,71.88
2023-04-11T07:00:59.887Z,71.38
2023-04-11T07:03:26.681Z,71.87
2023-04-11T07:05:53.389Z,71.65
2023-04-11T07:08:20.101Z,71.74
2023-04-11T07:10:47.883Z,72.35
2023-04-11T07:13:14.539Z,71.87
2023-04-11T07:15:41.162Z,71.15
2023-04-11T07:18:08.077Z,71.23
2023-04-11T07:20:35.030Z,70.91
2023-04-11T07:23:02.258Z,70.87
2023-04-11T07:25:33.841Z,71.00
2023-04-11T07:28:01.040Z,70.35
2023-04-11T07:30:28.690Z,69.84
2023-04-11T07:32:55.468Z,70.32
2023-04-11T07:35:22.348Z,70.01
2023-04-11T07:37:48.971Z,70.11
2023-04-11T07:40:15.679Z,69.06
2023-04-11T07:42:42.696Z,69.01
2023-04-11T07:45:09.571Z,69.02
2023-04-11T07:47:36.331Z,68.63
2023-04-11T07:50:03.848Z,67.48
2023-04-11T07:52:31.073Z,67.04
2023-04-11T07:54:57.844Z,67.51
2023-04-11T07:57:24.568Z,66.97
2023-04-11T07:59:54.108Z,66.67
2023-04-11T08:02:20.834Z,67.67
2023-04-11T08:04:47.594Z,67.76
2023-04-11T08:07:14.577Z,67.65
2023-04-11T08:09:42.575Z,66.74
2023-04-11T08:12:09.832Z,66.58
2023-04-11T08:14:37.284Z,66.96
2023-04-11T08:17:04.621Z,66.73
2023-04-11T08:19:34.852Z,66.53
2023-04-11T08:22:01.526Z,65.43
2023-04-11T08:24:28.204Z,64.93
2023-04-11T08:26:55.012Z,64.20
2023-04-11T08:29:21.658Z,63.81
2023-04-11T08:31:48.370Z,63.83
2023-04-11T08:34:15.063Z,63.02
2023-04-11T08:36:41.862Z,63.07
2023-04-11T08:39:08.917Z,62.68
2023-04-11T08:41:35.943Z,62.37
2023-04-11T08:44:02.882Z,62.02
2023-04-11T08:46:32.549Z,62.05
2023-04-11T08:48:59.238Z,61.49
2023-04-11T08:51:27.078Z,61.73
2023-04-11T08:53:58.039Z,61.78
2023-04-11T08:56:24.988Z,61.03
2023-04-11T08:58:51.607Z,60.85
2023-04-11T09:01:34.289Z,60.64
2023-04-11T09:04:05.216Z,59.22
2023-04-11T09:06:33.842Z,58.81
2023-04-11T09:09:05.285Z,57.71
2023-04-11T09:11:53.174Z,57.49
2023-04-11T09:14:24.958Z,57.31
2023-04-11T09:17:00.254Z,57.65
2023-04-11T09:19:32.050Z,56.39
2023-04-11T09:22:03.663Z,56.18
2023-04-11T09:24:32.792Z,57.33
2023-04-11T09:27:11.280Z,56.50
2023-04-11T09:29:39.489Z,57.69
2023-04-11T09:32:06.496Z,57.41
2023-04-11T09:34:37.842Z,58.19
2023-04-11T09:37:04.729Z,58.74
2023-04-11T09:39:32.557Z,58.91
2023-04-11T09:41:59.381Z,58.79
2023-04-11T09:44:38.359Z,60.28
2023-04-11T09:47:05.396Z,59.72
2023-04-11T09:49:34.243Z,58.84
2023-04-11T09:52:01.075Z,59.68
2023-04-11T09:54:28.748Z,59.09
2023-04-11T09:56:57.222Z,58.59
2023-04-11T09:59:26.875Z,58.30
2023-04-11T10:01:53.757Z,57.89
2023-04-11T10:04:20.591Z,57.46
2023-04-11T10:07:02.251Z,57.59
2023-04-11T10:09:29.946Z,56.89
2023-04-11T10:11:57.095Z,55.74
2023-04-11T10:14:39.268Z,55.73
2023-04-11T10:17:23.971Z,55.46
2023-04-11T10:19:57.480Z,54.91
2023-04-11T10:22:46.545Z,54.76
2023-04-11T10:25:20.054Z,55.31
2023-04-11T10:27:53.574Z,53.85
2023-04-11T10:30:39.221Z,54.35
2023-04-11T10:33:16.565Z,53.13
2023-04-11T10:35:58.516Z,52.59
2023-04-11T10:38:40.577Z,51.81
2023-04-11T10:41:27.589Z,51.76
2023-04-11T10:44:23.421Z,51.30
2023-04-11T10:46:54.731Z,50.11
2023-04-11T10:49:37.807Z,49.71
2023-04-11T10:52:37.322Z,50.55
2023-04-11T10:55:19.744Z,50.06
2023-04-11T10:58:09.021Z,48.99
2023-04-11T11:00:50.304Z,48.57
2023-04-11T11:03:24.389Z,48.68
2023-04-11T11:06:08.594Z,48.07
2023-04-11T11:08:41.945Z,47.77
2023-04-11T11:11:11.376Z,47.08
2023-04-11T11:13:45.926Z,48.03
2023-04-11T11:16:17.381Z,46.62
2023-04-11T11:18:52.571Z,47.20
2023-04-11T11:21:27.833Z,47.16
2023-04-11T11:24:00.432Z,46.54
2023-04-11T11:26:40.963Z,46.02
2023-04-11T11:29:08.452Z,46.50
2023-04-11T11:31:37.905Z,46.41
2023-04-11T11:34:22.161Z,46.00
2023-04-11T11:36:51.811Z,46.04
2023-04-11T11:39:22.842Z,46.17
2023-04-11T11:41:51.159Z,46.08
2023-04-11T11:44:28.721Z,45.75
2023-04-11T11:47:09.256Z,45.86
2023-04-11T11:49:53.371Z,46.53
2023-04-11T11:52:42.571Z,46.41
2023-04-11T11:55:31.266Z,46.23
2023-04-11T11:58:02.922Z,44.58
2023-04-11T12:00:34.989Z,44.45
2023-04-11T12:03:02.611Z,45.19
2023-04-11T12:05:32.057Z,45.75
2023-04-11T12:08:01.141Z,45.60
2023-04-11T12:10:38.996Z,45.61
2023-04-11T12:13:20.032Z,45.00
2023-04-11T12:15:52.241Z,44.51
2023-04-11T12:18:23.479Z,45.45
2023-04-11T12:20:51.272Z,46.65
2023-04-11T12:23:18.694Z,46.68
2023-04-11T12:25:46.716Z,46.96
2023-04-11T12:28:16.951Z,47.22
2023-04-11T12:30:43.542Z,47.35
2023-04-11T12:33:10.330Z,47.56
2023-04-11T12:35:37.048Z,47.50
2023-04-11T12:38:04.362Z,47.90
2023-04-11T12:40:33.952Z,47.96
2023-04-11T12:43:00.581Z,48.35
2023-04-11T12:45:27.459Z,48.03
2023-04-11T12:47:54.410Z,48.06
2023-04-11T12:50:24.685Z,47.81
2023-04-11T12:52:51.813Z,47.99
2023-04-11T12:55:18.641Z,49.76
2023-04-11T12:57:45.620Z,50.00
2023-04-11T13:00:13.407Z,50.88
2023-04-11T13:02:45.232Z,51.64
2023-04-11T13:05:14.568Z,51.83
2023-04-11T13:07:45.594Z,53.78
2023-04-11T13:10:14.120Z,57.05
2023-04-11T13:12:41.956Z,59.04
2023-04-11T13:15:16.253Z,60.36
2023-04-11T13:17:43.279Z,61.90
2023-04-11T13:20:11.209Z,62.92
2023-04-11T13:22:42.016Z,63.75
2023-04-11T13:25:09.803Z,64.72
2023-04-11T13:27:37.800Z,64.98
2023-04-11T13:30:05.133Z,66.05
2023-04-11T13:32:32.277Z,67.40
2023-04-11T13:34:59.044Z,68.27
2023-04-11T13:37:25.857Z,67.94
2023-04-11T13:39:52.613Z,69.04
2023-04-11T13:42:19.260Z,70.32
2023-04-11T13:44:46.026Z,70.73
2023-04-11T13:47:12.758Z,71.43
2023-04-11T13:49:39.355Z,72.60
2023-04-11T13:52:06.058Z,72.85
2023-04-11T13:54:32.658Z,71.76
2023-04-11T13:56:59.601Z,71.59
2023-04-11T13:59:27.365Z,72.68
2023-04-11T14:01:53.937Z,73.42
2023-04-11T14:04:20.652Z,74.14
2023-04-11T14:06:47.347Z,74.22
2023-04-11T14:09:14.343Z,74.57
2023-04-11T14:11:41.136Z,75.19
2023-04-11T14:14:10.134Z,74.64
2023-04-11T14:16:36.809Z,75.75
2023-04-11T14:19:03.523Z,75.95
2023-04-11T14:21:30.185Z,77.22
2023-04-11T14:23:56.936Z,77.32
2023-04-11T14:26:23.671Z,76.78
2023-04-11T14:28:50.298Z,77.17
2023-04-11T14:31:17.038Z,77.98
2023-04-11T14:33:46.198Z,79.07
2023-04-11T14:36:12.882Z,78.96
2023-04-11T14:38:42.114Z,79.62
2023-04-11T14:41:08.830Z,79.61
2023-04-11T14:43:35.558Z,80.80
2023-04-11T14:46:02.511Z,80.37
2023-04-11T14:48:29.593Z,80.25
2023-04-11T14:50:56.325Z,79.10
2023-04-11T14:53:23.101Z,75.69
2023-04-11T14:55:49.818Z,75.04
2023-04-11T14:58:16.931Z,72.14
2023-04-11T15:00:44.976Z,71.60
2023-04-11T15:03:12.460Z,70.77
2023-04-11T15:05:39.378Z,71.02
2023-04-11T15:08:06.155Z,70.08
2023-04-11T15:10:32.830Z,70.79
2023-04-11T15:12:59.749Z,70.86
2023-04-11T15:15:26.388Z,70.79
2023-04-11T15:18:20.805Z,70.64
2023-04-11T15:20:47.482Z,70.44
2023-04-11T15:23:14.241Z,70.98
2023-04-11T15:25:40.884Z,72.46
2023-04-11T15:28:07.568Z,74.51
2023-04-11T15:30:34.590Z,74.29
2023-04-11T15:33:01.246Z,73.75
2023-04-11T15:35:27.930Z,74.53
2023-04-11T15:37:56.850Z,75.81
2023-04-11T15:40:23.480Z,76.03
2023-04-11T15:42:50.392Z,76.33
2023-04-11T15:45:22.383Z,75.04
2023-04-11T15:47:48.985Z,75.58
2023-04-11T15:50:17.506Z,76.89
2023-04-11T15:52:47.945Z,76.85
2023-04-11T15:55:16.112Z,75.88
2023-04-11T15:57:42.782Z,75.44
2023-04-11T16:00:10.020Z,74.06
2023-04-11T16:02:37.617Z,73.98
2023-04-11T16:05:04.735Z,74.80
2023-04-11T16:07:31.539Z,74.35
2023-04-11T16:09:58.302Z,75.12
2023-04-11T16:12:25.058Z,75.54
2023-04-11T16:14:51.724Z,75.80
2023-04-11T16:17:21.203Z,74.00
2023-04-11T16:19:51.370Z,74.66
2023-04-11T16:22:18.083Z,74.77
2023-04-11T16:24:45.110Z,74.53
2023-04-11T16:27:11.838Z,73.75
2023-04-11T16:29:38.659Z,74.06
2023-04-11T16:32:05.521Z,74.47
2023-04-11T16:34:32.121Z,74.85
2023-04-11T16:36:58.783Z,74.19
2023-04-11T16:39:25.411Z,70.03
2023-04-11T16:41:54.259Z,71.68
2023-04-11T16:44:22.382Z,73.75
2023-04-11T16:46:49.349Z,75.38
2023-04-11T16:49:16.601Z,76.54
2023-04-11T16:51:43.305Z,75.75
2023-04-11T16:54:14.083Z,75.29
2023-04-11T16:56:40.824Z,75.28
2023-04-11T16:59:07.599Z,75.92
2023-04-11T17:01:34.225Z,74.87
2023-04-11T17:04:01.754Z,75.25
2023-04-11T17:06:32.221Z,73.31
2023-04-11T17:08:59.002Z,74.58
2023-04-11T17:11:25.839Z,74.67
2023-04-11T17:13:54.478Z,73.99
2023-04-11T17:16:21.938Z,73.54
2023-04-11T17:18:48.592Z,73.64
2023-04-11T17:21:16.698Z,73.56
2023-04-11T17:23:43.748Z,73.24
2023-04-11T17:26:11.500Z,72.85
2023-04-11T17:28:41.109Z,72.74
2023-04-11T17:31:18.769Z,72.16
2023-04-11T17:33:45.874Z,71.62
2023-04-11T17:36:13.224Z,71.78
2023-04-11T17:38:42.194Z,70.95
2023-04-11T17:43:38.518Z,72.53
2023-04-11T17:46:05.433Z,72.69
2023-04-11T17:48:32.211Z,72.75
2023-04-11T17:50:58.804Z,71.62
2023-04-11T17:53:25.602Z,71.27
2023-04-11T17:55:52.730Z,71.71
2023-04-11T17:58:19.405Z,71.45
2023-04-11T18:00:55.498Z,72.26
2023-04-11T18:03:23.038Z,71.84
2023-04-11T18:05:54.037Z,72.06
2023-04-11T18:08:26.019Z,72.64
2023-04-11T18:11:00.104Z,72.72
2023-04-11T18:13:27.593Z,73.08
2023-04-11T18:15:54.448Z,72.84
2023-04-11T18:18:21.272Z,72.38
2023-04-11T18:20:48.104Z,73.85
2023-04-11T18:23:14.732Z,73.43
2023-04-11T18:25:41.391Z,74.03
2023-04-11T18:28:09.276Z,73.90
2023-04-11T18:30:35.904Z,73.39
2023-04-11T18:33:02.561Z,73.91
2023-04-11T18:35:29.262Z,70.50
2023-04-11T18:37:56.021Z,69.60
2023-04-11T18:40:22.865Z,68.87
2023-04-11T18:42:51.984Z,71.21
2023-04-11T18:45:22.414Z,69.87
2023-04-11T18:47:49.703Z,71.91
2023-04-11T18:50:17.279Z,73.19
2023-04-11T18:52:45.490Z,72.57
2023-04-11T18:55:12.958Z,74.23
2023-04-11T18:57:39.873Z,73.91
2023-04-11T19:00:18.995Z,74.26
2023-04-11T19:02:47.684Z,74.50
2023-04-11T19:05:14.716Z,74.30
2023-04-11T19:07:45.827Z,73.50
2023-04-11T19:10:12.827Z,74.10
2023-04-11T19:12:40.486Z,75.46
2023-04-11T19:15:09.279Z,76.07
2023-04-11T19:17:38.280Z,77.67
2023-04-11T19:20:07.297Z,78.27
2023-04-11T19:22:39.921Z,76.88
2023-04-11T19:25:09.737Z,76.66
2023-04-11T19:27:39.237Z,76.46
2023-04-11T19:30:07.220Z,76.73
2023-04-11T19:32:36.729Z,75.56
2023-04-11T19:35:04.045Z,75.99
2023-04-11T19:37:31.140Z,75.96
2023-04-11T19:39:57.766Z,74.41
2023-04-11T19:42:25.061Z,73.84
2023-04-11T19:44:52.051Z,73.07
2023-04-11T19:47:19.545Z,73.59
2023-04-11T19:49:46.145Z,73.11
2023-04-11T19:52:13.170Z,73.03
2023-04-11T19:54:39.975Z,72.13
2023-04-11T19:57:07.046Z,72.38
2023-04-11T19:59:33.765Z,72.56
2023-04-11T20:02:01.683Z,71.24
2023-04-11T20:04:28.570Z,71.78
2023-04-11T20:06:58.483Z,70.82
2023-04-11T20:09:31.409Z,70.45
2023-04-11T20:12:00.168Z,70.13
2023-04-11T20:14:26.739Z,69.97
2023-04-11T20:16:53.434Z,70.45
2023-04-11T20:19:21.676Z,70.50
2023-04-11T20:21:48.992Z,70.84
2023-04-11T20:24:17.445Z,70.84
2023-04-11T20:26:44.089Z,71.00
2023-04-11T20:29:11.193Z,71.17
2023-04-11T20:31:37.767Z,70.84
2023-04-11T20:34:04.505Z,70.96
2023-04-11T20:36:33.293Z,71.29
2023-04-11T20:38:59.928Z,70.99
2023-04-11T20:41:30.434Z,70.85
2023-04-11T20:43:57.800Z,70.16
2023-04-11T20:46:24.762Z,70.55
2023-04-11T20:48:51.405Z,69.61
2023-04-11T20:51:18.311Z,69.96
2023-04-11T20:53:44.900Z,69.76
2023-04-11T20:56:11.983Z,69.68
2023-04-11T20:58:39.350Z,70.33
2023-04-11T21:01:06.080Z,69.78
2023-04-11T21:03:37.799Z,69.99
2023-04-11T21:06:07.480Z,68.95
2023-04-11T21:08:37.435Z,69.42
2023-04-11T21:11:05.160Z,69.23
2023-04-11T21:13:31.779Z,68.79
2023-04-11T21:15:58.804Z,69.43
2023-04-11T21:18:25.614Z,69.10
2023-04-11T21:20:52.210Z,68.65
2023-04-11T21:23:18.847Z,68.87
2023-04-11T21:25:45.577Z,69.25
2023-04-11T21:28:12.192Z,69.03
2023-04-11T21:30:39.599Z,69.55
2023-04-11T21:33:06.364Z,69.43
2023-04-11T21:35:35.260Z,69.35
2023-04-11T21:38:01.877Z,69.34
2023-04-11T21:40:28.694Z,69.82
2023-04-11T21:42:58.647Z,70.10
2023-04-11T21:45:25.377Z,69.84
2023-04-11T21:47:52.082Z,70.36
2023-04-11T21:50:18.983Z,70.39
2023-04-11T21:52:46.470Z,69.98
2023-04-11T21:55:15.912Z,70.02
2023-04-11T21:57:42.525Z,70.69
2023-04-11T22:00:11.150Z,71.12
2023-04-11T22:02:38.276Z,71.81
2023-04-11T22:05:07.320Z,71.87
2023-04-11T22:07:47.077Z,72.08
2023-04-11T22:10:14.487Z,71.50
2023-04-11T22:12:41.970Z,70.50
2023-04-11T22:15:13.611Z,69.79
2023-04-11T22:17:42.394Z,70.10
2023-04-11T22:20:11.215Z,70.83
2023-04-11T22:22:38.922Z,71.25
2023-04-11T22:25:07.038Z,71.47
2023-04-11T22:27:34.616Z,71.46
2023-04-11T22:30:02.382Z,71.16
2023-04-11T22:32:30.307Z,71.32
2023-04-11T22:34:57.008Z,71.37
2023-04-11T22:37:23.815Z,72.10
2023-04-11T22:39:50.479Z,71.50
2023-04-11T22:42:17.088Z,71.54
2023-04-11T22:44:43.723Z,71.30
2023-04-11T22:47:16.274Z,71.12
2023-04-11T22:49:45.116Z,71.38
2023-04-11T22:52:19.004Z,71.55
2023-04-11T22:54:47.009Z,71.44
2023-04-11T22:57:13.633Z,71.43
2023-04-11T22:59:40.843Z,70.76
2023-04-11T23:02:07.602Z,71.05
2023-04-11T23:04:34.298Z,70.82
2023-04-11T23:07:00.916Z,70.49
2023-04-11T23:09:28.459Z,70.56
2023-04-11T23:11:58.001Z,70.90
2023-04-11T23:14:31.048Z,71.55
2023-04-11T23:16:57.770Z,71.39
2023-04-11T23:19:24.439Z,71.33
2023-04-11T23:21:51.063Z,71.17
2023-04-11T23:24:17.691Z,71.60
2023-04-11T23:26:44.283Z,71.34
2023-04-11T23:29:11.261Z,71.56
2023-04-11T23:31:37.817Z,71.16
2023-04-11T23:34:04.373Z,70.58
2023-04-11T23:36:31.081Z,71.29
2023-04-11T23:38:58.314Z,71.72
2023-04-11T23:41:25.217Z,71.98
2023-04-11T23:43:51.954Z,71.80
2023-04-11T23:46:18.615Z,72.19
2023-04-11T23:48:46.992Z,72.79
2023-04-11T23:51:13.902Z,72.53
2023-04-11T23:53:40.728Z,72.85
2023-04-11T23:56:07.851Z,73.30
2023-04-11T23:58:35.138Z,72.76
